<?xml version="1.0" encoding="UTF-8" standalone="no" ?>
<gpx xmlns="http://www.topografix.com/GPX/1/1" xmlns:xsi="http://www.w3.org/2001/XMLSchema-instance" xsi:schemaLocation="http://www.topografix.com/GPX/1/1 http://www.topografix.com/GPX/1/1/gpx.xsd" version="1.1" creator="VisuGPX - https://www.visugpx.com">
  <metadata>
    <name>Lacanau de Mios 10km</name>
    <desc><![CDATA[Départ lieu dit La moulasse]]></desc>
  </metadata>
  <trk>
    <name><![CDATA[Lacanau de Mios 10km_1]]></name>
    <extensions>
      <line xmlns="http://www.topografix.com/GPX/gpx_style/0/2">
        <color>00FF00</color>
        <width>4</width>
      </line>
    </extensions>
    <trkseg>
      <trkpt lat="44.65235" lon="-0.89855">
        <ele>32.7</ele>
      </trkpt>
      <trkpt lat="44.65292" lon="-0.89864">
        <ele>34.5</ele>
      </trkpt>
      <trkpt lat="44.65299" lon="-0.89865">
        <ele>34.8</ele>
      </trkpt>
      <trkpt lat="44.65301" lon="-0.89823">
        <ele>34.7</ele>
      </trkpt>
      <trkpt lat="44.65303" lon="-0.89767">
        <ele>34.1</ele>
      </trkpt>
      <trkpt lat="44.65299" lon="-0.89727">
        <ele>33</ele>
      </trkpt>
      <trkpt lat="44.65289" lon="-0.89702">
        <ele>32</ele>
      </trkpt>
      <trkpt lat="44.65259" lon="-0.89681">
        <ele>31.2</ele>
      </trkpt>
      <trkpt lat="44.65255" lon="-0.89661">
        <ele>31</ele>
      </trkpt>
      <trkpt lat="44.65259" lon="-0.89652">
        <ele>31</ele>
      </trkpt>
      <trkpt lat="44.65262" lon="-0.89647">
        <ele>30.9</ele>
      </trkpt>
      <trkpt lat="44.65271" lon="-0.89639">
        <ele>30.8</ele>
      </trkpt>
      <trkpt lat="44.65287" lon="-0.89614">
        <ele>30.4</ele>
      </trkpt>
      <trkpt lat="44.65294" lon="-0.89597">
        <ele>30.1</ele>
      </trkpt>
      <trkpt lat="44.65297" lon="-0.89558">
        <ele>29.4</ele>
      </trkpt>
      <trkpt lat="44.65314" lon="-0.89545">
        <ele>28.7</ele>
      </trkpt>
      <trkpt lat="44.65325" lon="-0.89536">
        <ele>28.1</ele>
      </trkpt>
      <trkpt lat="44.65353" lon="-0.89529">
        <ele>28.5</ele>
      </trkpt>
      <trkpt lat="44.65379" lon="-0.89502">
        <ele>29.7</ele>
      </trkpt>
      <trkpt lat="44.65389" lon="-0.89485">
        <ele>30.3</ele>
      </trkpt>
      <trkpt lat="44.65404" lon="-0.89476">
        <ele>31.2</ele>
      </trkpt>
      <trkpt lat="44.65422" lon="-0.89451">
        <ele>32.2</ele>
      </trkpt>
      <trkpt lat="44.65454" lon="-0.89426">
        <ele>33.7</ele>
      </trkpt>
      <trkpt lat="44.65453" lon="-0.89421">
        <ele>33.7</ele>
      </trkpt>
      <trkpt lat="44.65453" lon="-0.89421">
        <ele>33.7</ele>
      </trkpt>
      <trkpt lat="44.65448" lon="-0.89379">
        <ele>33.9</ele>
      </trkpt>
      <trkpt lat="44.6545" lon="-0.89356">
        <ele>34.3</ele>
      </trkpt>
      <trkpt lat="44.6547" lon="-0.89281">
        <ele>36.2</ele>
      </trkpt>
      <trkpt lat="44.65483" lon="-0.89231">
        <ele>36.1</ele>
      </trkpt>
      <trkpt lat="44.65485" lon="-0.89215">
        <ele>35.7</ele>
      </trkpt>
      <trkpt lat="44.65492" lon="-0.89195">
        <ele>35.2</ele>
      </trkpt>
      <trkpt lat="44.65495" lon="-0.89187">
        <ele>34.9</ele>
      </trkpt>
      <trkpt lat="44.6552" lon="-0.89143">
        <ele>33.9</ele>
      </trkpt>
      <trkpt lat="44.65534" lon="-0.89113">
        <ele>33.5</ele>
      </trkpt>
      <trkpt lat="44.6554" lon="-0.89101">
        <ele>33.3</ele>
      </trkpt>
      <trkpt lat="44.65537" lon="-0.89054">
        <ele>33.4</ele>
      </trkpt>
      <trkpt lat="44.65539" lon="-0.89034">
        <ele>33.6</ele>
      </trkpt>
      <trkpt lat="44.65597" lon="-0.88932">
        <ele>33.5</ele>
      </trkpt>
      <trkpt lat="44.65603" lon="-0.88928">
        <ele>33.6</ele>
      </trkpt>
      <trkpt lat="44.65707" lon="-0.88858">
        <ele>34.3</ele>
      </trkpt>
      <trkpt lat="44.65736" lon="-0.88795">
        <ele>33.7</ele>
      </trkpt>
      <trkpt lat="44.6575" lon="-0.88767">
        <ele>32.6</ele>
      </trkpt>
      <trkpt lat="44.65775" lon="-0.88744">
        <ele>32.7</ele>
      </trkpt>
      <trkpt lat="44.65775" lon="-0.88744">
        <ele>32.7</ele>
        <time>2021-06-02T09:04:57.955Z</time>
      </trkpt>
      <trkpt lat="44.65775" lon="-0.88744">
        <ele>32.7</ele>
        <time>2021-06-02T09:04:57.955Z</time>
      </trkpt>
      <trkpt lat="44.6587" lon="-0.88732">
        <ele>34.8</ele>
        <time>2021-06-02T09:05:31.261Z</time>
      </trkpt>
      <trkpt lat="44.66" lon="-0.88681">
        <ele>39</ele>
        <time>2021-06-02T09:06:23.885Z</time>
      </trkpt>
      <trkpt lat="44.6605" lon="-0.88665">
        <ele>37.1</ele>
        <time>2021-06-02T09:06:30.771Z</time>
      </trkpt>
      <trkpt lat="44.66179" lon="-0.88623">
        <ele>35.7</ele>
        <time>2021-06-02T09:06:36.591Z</time>
      </trkpt>
      <trkpt lat="44.66209" lon="-0.8863">
        <ele>36.4</ele>
        <time>2021-06-02T09:06:38.840Z</time>
      </trkpt>
      <trkpt lat="44.6629" lon="-0.88713">
        <ele>37.9</ele>
        <time>2021-06-02T09:06:44.409Z</time>
      </trkpt>
      <trkpt lat="44.6634" lon="-0.88757">
        <ele>38.9</ele>
      </trkpt>
      <trkpt lat="44.66361" lon="-0.88787">
        <ele>39.1</ele>
        <time>2021-06-02T09:07:08.468Z</time>
      </trkpt>
      <trkpt lat="44.66387" lon="-0.88794">
        <ele>38.4</ele>
        <time>2021-06-02T09:07:35.088Z</time>
      </trkpt>
      <trkpt lat="44.66459" lon="-0.88763">
        <ele>36.5</ele>
        <time>2021-06-02T09:07:39.435Z</time>
      </trkpt>
      <trkpt lat="44.66476" lon="-0.88738">
        <ele>36.2</ele>
        <time>2021-06-02T09:07:47.865Z</time>
      </trkpt>
      <trkpt lat="44.66487" lon="-0.88736">
        <ele>36.4</ele>
      </trkpt>
      <trkpt lat="44.66489" lon="-0.88711">
        <ele>35.9</ele>
        <time>2021-06-02T09:08:29.896Z</time>
      </trkpt>
      <trkpt lat="44.66489" lon="-0.88685">
        <ele>35.4</ele>
        <time>2021-06-02T09:08:58.523Z</time>
      </trkpt>
      <trkpt lat="44.66533" lon="-0.88664">
        <ele>35.8</ele>
        <time>2021-06-02T09:09:12.584Z</time>
      </trkpt>
      <trkpt lat="44.66561" lon="-0.88644">
        <ele>36.3</ele>
        <time>2021-06-02T09:09:22.834Z</time>
      </trkpt>
      <trkpt lat="44.66585" lon="-0.88632">
        <ele>36.6</ele>
        <time>2021-06-02T09:09:30.793Z</time>
      </trkpt>
      <trkpt lat="44.66611" lon="-0.88613">
        <ele>36.9</ele>
        <time>2021-06-02T09:09:39.807Z</time>
      </trkpt>
      <trkpt lat="44.66636" lon="-0.88588">
        <ele>37.3</ele>
        <time>2021-06-02T09:09:49.519Z</time>
      </trkpt>
      <trkpt lat="44.66643" lon="-0.88571">
        <ele>37.7</ele>
        <time>2021-06-02T09:09:54.798Z</time>
      </trkpt>
      <trkpt lat="44.66659" lon="-0.88558">
        <ele>38.6</ele>
        <time>2021-06-02T09:10:03.729Z</time>
      </trkpt>
      <trkpt lat="44.66659" lon="-0.8854">
        <ele>39.2</ele>
        <time>2021-06-02T09:10:09.844Z</time>
      </trkpt>
      <trkpt lat="44.66683" lon="-0.88523">
        <ele>40.5</ele>
        <time>2021-06-02T09:10:22.805Z</time>
      </trkpt>
      <trkpt lat="44.66716" lon="-0.88523">
        <ele>41.1</ele>
        <time>2021-06-02T09:10:33.842Z</time>
      </trkpt>
      <trkpt lat="44.66748" lon="-0.88511">
        <ele>41.8</ele>
        <time>2021-06-02T09:10:45.291Z</time>
      </trkpt>
      <trkpt lat="44.66759" lon="-0.88479">
        <ele>42.9</ele>
        <time>2021-06-02T09:10:57.008Z</time>
      </trkpt>
      <trkpt lat="44.66768" lon="-0.88469">
        <ele>43.3</ele>
        <time>2021-06-02T09:11:01.706Z</time>
      </trkpt>
      <trkpt lat="44.6687" lon="-0.88413">
        <ele>44.7</ele>
        <time>2021-06-02T09:11:36.279Z</time>
      </trkpt>
      <trkpt lat="44.66899" lon="-0.8841">
        <ele>43.6</ele>
        <time>2021-06-02T09:11:40.155Z</time>
      </trkpt>
      <trkpt lat="44.66915" lon="-0.88402">
        <ele>42.9</ele>
        <time>2021-06-02T09:11:42.346Z</time>
      </trkpt>
      <trkpt lat="44.66927" lon="-0.88381">
        <ele>42.5</ele>
        <time>2021-06-02T09:11:45.402Z</time>
      </trkpt>
      <trkpt lat="44.66944" lon="-0.8837">
        <ele>42</ele>
        <time>2021-06-02T09:11:48.197Z</time>
      </trkpt>
      <trkpt lat="44.66966" lon="-0.88331">
        <ele>40.2</ele>
        <time>2021-06-02T09:11:52.386Z</time>
      </trkpt>
      <trkpt lat="44.6698" lon="-0.88312">
        <ele>39.8</ele>
        <time>2021-06-02T09:11:55.501Z</time>
      </trkpt>
      <trkpt lat="44.66992" lon="-0.88266">
        <ele>39.4</ele>
        <time>2021-06-02T09:12:01.740Z</time>
      </trkpt>
      <trkpt lat="44.67021" lon="-0.88203">
        <ele>39.1</ele>
        <time>2021-06-02T09:12:15.438Z</time>
      </trkpt>
      <trkpt lat="44.67025" lon="-0.88195">
        <ele>39.1</ele>
        <time>2021-06-02T09:12:17.376Z</time>
      </trkpt>
      <trkpt lat="44.67029" lon="-0.88187">
        <ele>39.1</ele>
        <time>2021-06-02T09:12:19.315Z</time>
      </trkpt>
      <trkpt lat="44.67031" lon="-0.88174">
        <ele>39</ele>
        <time>2021-06-02T09:12:21.029Z</time>
      </trkpt>
      <trkpt lat="44.6703" lon="-0.8816">
        <ele>38.9</ele>
        <time>2021-06-02T09:12:22.856Z</time>
      </trkpt>
      <trkpt lat="44.67027" lon="-0.88149">
        <ele>38.9</ele>
        <time>2021-06-02T09:12:25.191Z</time>
      </trkpt>
      <trkpt lat="44.67022" lon="-0.8814">
        <ele>38.8</ele>
        <time>2021-06-02T09:12:26.630Z</time>
      </trkpt>
      <trkpt lat="44.67023" lon="-0.88109">
        <ele>38.6</ele>
        <time>2021-06-02T09:12:30.709Z</time>
      </trkpt>
      <trkpt lat="44.67054" lon="-0.88109">
        <ele>38.1</ele>
        <time>2021-06-02T09:12:35.942Z</time>
      </trkpt>
      <trkpt lat="44.67068" lon="-0.8811">
        <ele>37.9</ele>
        <time>2021-06-02T09:12:38.364Z</time>
      </trkpt>
      <trkpt lat="44.67077" lon="-0.88094">
        <ele>37.4</ele>
        <time>2021-06-02T09:12:40.363Z</time>
      </trkpt>
      <trkpt lat="44.67081" lon="-0.88071">
        <ele>37.1</ele>
        <time>2021-06-02T09:12:43.148Z</time>
      </trkpt>
      <trkpt lat="44.67085" lon="-0.88011">
        <ele>37.1</ele>
        <time>2021-06-02T09:12:55.094Z</time>
      </trkpt>
      <trkpt lat="44.67091" lon="-0.87984">
        <ele>37.6</ele>
        <time>2021-06-02T09:13:02.355Z</time>
      </trkpt>
      <trkpt lat="44.67102" lon="-0.87964">
        <ele>38.1</ele>
        <time>2021-06-02T09:13:09.081Z</time>
      </trkpt>
      <trkpt lat="44.67105" lon="-0.87934">
        <ele>38.3</ele>
        <time>2021-06-02T09:13:15.645Z</time>
      </trkpt>
      <trkpt lat="44.67101" lon="-0.87901">
        <ele>39</ele>
        <time>2021-06-02T09:13:24.727Z</time>
      </trkpt>
      <trkpt lat="44.67111" lon="-0.87882">
        <ele>39.3</ele>
        <time>2021-06-02T09:13:30.329Z</time>
      </trkpt>
      <trkpt lat="44.67144" lon="-0.87865">
        <ele>39.2</ele>
        <time>2021-06-02T09:13:39.717Z</time>
      </trkpt>
      <trkpt lat="44.67148" lon="-0.87856">
        <ele>39.5</ele>
        <time>2021-06-02T09:13:43.025Z</time>
      </trkpt>
      <trkpt lat="44.6715" lon="-0.87852">
        <ele>39.6</ele>
        <time>2021-06-02T09:13:44.341Z</time>
      </trkpt>
      <trkpt lat="44.6712" lon="-0.87829">
        <ele>40.7</ele>
        <time>2021-06-02T09:13:57.850Z</time>
      </trkpt>
      <trkpt lat="44.67106" lon="-0.87808">
        <ele>41.6</ele>
        <time>2021-06-02T09:14:07.404Z</time>
      </trkpt>
      <trkpt lat="44.67084" lon="-0.87793">
        <ele>42.4</ele>
        <time>2021-06-02T09:14:17.136Z</time>
      </trkpt>
      <trkpt lat="44.67119" lon="-0.87737">
        <ele>43.2</ele>
        <time>2021-06-02T09:14:34.286Z</time>
      </trkpt>
      <trkpt lat="44.67143" lon="-0.87717">
        <ele>42.7</ele>
        <time>2021-06-02T09:14:38.894Z</time>
      </trkpt>
      <trkpt lat="44.67199" lon="-0.87722">
        <ele>42</ele>
        <time>2021-06-02T09:14:48.812Z</time>
      </trkpt>
      <trkpt lat="44.67211" lon="-0.87708">
        <ele>42</ele>
        <time>2021-06-02T09:14:53.158Z</time>
      </trkpt>
      <trkpt lat="44.67285" lon="-0.87694">
        <ele>42.4</ele>
        <time>2021-06-02T09:15:15.047Z</time>
      </trkpt>
      <trkpt lat="44.67313" lon="-0.87686">
        <ele>42.8</ele>
        <time>2021-06-02T09:15:24.183Z</time>
      </trkpt>
      <trkpt lat="44.67333" lon="-0.87665">
        <ele>43</ele>
        <time>2021-06-02T09:15:31.692Z</time>
      </trkpt>
      <trkpt lat="44.67361" lon="-0.87656">
        <ele>43.3</ele>
        <time>2021-06-02T09:15:40.546Z</time>
      </trkpt>
      <trkpt lat="44.67386" lon="-0.87621">
        <ele>43.3</ele>
        <time>2021-06-02T09:15:50.380Z</time>
      </trkpt>
      <trkpt lat="44.67434" lon="-0.8759">
        <ele>42.9</ele>
        <time>2021-06-02T09:16:00.344Z</time>
      </trkpt>
      <trkpt lat="44.67463" lon="-0.87595">
        <ele>42.6</ele>
        <time>2021-06-02T09:16:05.658Z</time>
      </trkpt>
      <trkpt lat="44.6748" lon="-0.87594">
        <ele>42.4</ele>
        <time>2021-06-02T09:16:08.694Z</time>
      </trkpt>
      <trkpt lat="44.67476" lon="-0.87612">
        <ele>42.6</ele>
        <time>2021-06-02T09:16:13.024Z</time>
      </trkpt>
      <trkpt lat="44.6747" lon="-0.87628">
        <ele>42.9</ele>
        <time>2021-06-02T09:16:17.583Z</time>
      </trkpt>
      <trkpt lat="44.67473" lon="-0.87634">
        <ele>42.9</ele>
        <time>2021-06-02T09:16:19.037Z</time>
      </trkpt>
      <trkpt lat="44.67487" lon="-0.8763">
        <ele>42.7</ele>
        <time>2021-06-02T09:16:21.514Z</time>
      </trkpt>
      <trkpt lat="44.67508" lon="-0.87609">
        <ele>42.3</ele>
        <time>2021-06-02T09:16:25.896Z</time>
      </trkpt>
      <trkpt lat="44.67521" lon="-0.87592">
        <ele>42.1</ele>
        <time>2021-06-02T09:16:29.083Z</time>
      </trkpt>
      <trkpt lat="44.6753" lon="-0.87571">
        <ele>42.3</ele>
        <time>2021-06-02T09:16:34.514Z</time>
      </trkpt>
      <trkpt lat="44.67533" lon="-0.87566">
        <ele>42.4</ele>
        <time>2021-06-02T09:16:36.129Z</time>
      </trkpt>
      <trkpt lat="44.67553" lon="-0.87537">
        <ele>43.1</ele>
        <time>2021-06-02T09:16:46.438Z</time>
      </trkpt>
      <trkpt lat="44.67552" lon="-0.87499">
        <ele>44</ele>
        <time>2021-06-02T09:16:57.282Z</time>
      </trkpt>
      <trkpt lat="44.67561" lon="-0.87501">
        <ele>44</ele>
        <time>2021-06-02T09:16:59.822Z</time>
      </trkpt>
      <trkpt lat="44.67565" lon="-0.87492">
        <ele>44.1</ele>
        <time>2021-06-02T09:17:02.216Z</time>
      </trkpt>
      <trkpt lat="44.67555" lon="-0.87472">
        <ele>44.3</ele>
        <time>2021-06-02T09:17:07.634Z</time>
      </trkpt>
      <trkpt lat="44.67578" lon="-0.87435">
        <ele>44.1</ele>
        <time>2021-06-02T09:17:16.590Z</time>
      </trkpt>
      <trkpt lat="44.67603" lon="-0.87425">
        <ele>43.8</ele>
        <time>2021-06-02T09:17:21.240Z</time>
      </trkpt>
      <trkpt lat="44.67625" lon="-0.87383">
        <ele>43.9</ele>
        <time>2021-06-02T09:17:31.842Z</time>
      </trkpt>
      <trkpt lat="44.67633" lon="-0.87352">
        <ele>44</ele>
        <time>2021-06-02T09:17:38.645Z</time>
      </trkpt>
      <trkpt lat="44.67627" lon="-0.87349">
        <ele>44.2</ele>
        <time>2021-06-02T09:17:41.137Z</time>
      </trkpt>
      <trkpt lat="44.67626" lon="-0.87348">
        <ele>44.3</ele>
        <time>2021-06-02T09:17:41.891Z</time>
      </trkpt>
      <trkpt lat="44.67623" lon="-0.87347">
        <ele>44.4</ele>
        <time>2021-06-02T09:17:43.113Z</time>
      </trkpt>
      <trkpt lat="44.67609" lon="-0.87329">
        <ele>45.1</ele>
        <time>2021-06-02T09:17:51.101Z</time>
      </trkpt>
      <trkpt lat="44.67593" lon="-0.87296">
        <ele>45.8</ele>
        <time>2021-06-02T09:18:01.327Z</time>
      </trkpt>
      <trkpt lat="44.67591" lon="-0.87294">
        <ele>45.9</ele>
        <time>2021-06-02T09:18:02.419Z</time>
      </trkpt>
      <trkpt lat="44.67593" lon="-0.87296">
        <ele>45.8</ele>
        <time>2021-06-02T09:18:02.737Z</time>
      </trkpt>
      <trkpt lat="44.67594" lon="-0.87272">
        <ele>45.9</ele>
        <time>2021-06-02T09:18:07.772Z</time>
      </trkpt>
      <trkpt lat="44.67598" lon="-0.87246">
        <ele>46</ele>
        <time>2021-06-02T09:18:13.314Z</time>
      </trkpt>
      <trkpt lat="44.67615" lon="-0.87198">
        <ele>46.1</ele>
        <time>2021-06-02T09:18:24.205Z</time>
      </trkpt>
      <trkpt lat="44.67633" lon="-0.87116">
        <ele>46.5</ele>
        <time>2021-06-02T09:18:42.303Z</time>
      </trkpt>
      <trkpt lat="44.67635" lon="-0.87069">
        <ele>46.7</ele>
        <time>2021-06-02T09:18:52.176Z</time>
      </trkpt>
      <trkpt lat="44.67568" lon="-0.87057">
        <ele>44.7</ele>
        <time>2021-06-02T09:19:01.958Z</time>
      </trkpt>
      <trkpt lat="44.67588" lon="-0.87016">
        <ele>45.8</ele>
        <time>2021-06-02T09:19:15.742Z</time>
      </trkpt>
      <trkpt lat="44.67598" lon="-0.86977">
        <ele>47.3</ele>
        <time>2021-06-02T09:19:30.195Z</time>
      </trkpt>
      <trkpt lat="44.67612" lon="-0.86946">
        <ele>48.5</ele>
        <time>2021-06-02T09:19:42.595Z</time>
      </trkpt>
      <trkpt lat="44.67602" lon="-0.8694">
        <ele>48.5</ele>
        <time>2021-06-02T09:19:45.626Z</time>
      </trkpt>
      <trkpt lat="44.6759" lon="-0.86932">
        <ele>48.6</ele>
        <time>2021-06-02T09:19:49.602Z</time>
      </trkpt>
      <trkpt lat="44.6758" lon="-0.86925">
        <ele>48.7</ele>
        <time>2021-06-02T09:19:52.994Z</time>
      </trkpt>
      <trkpt lat="44.67577" lon="-0.86931">
        <ele>48.6</ele>
        <time>2021-06-02T09:19:53.843Z</time>
      </trkpt>
      <trkpt lat="44.67569" lon="-0.8696">
        <ele>47.7</ele>
        <time>2021-06-02T09:19:56.711Z</time>
      </trkpt>
      <trkpt lat="44.67565" lon="-0.87002">
        <ele>46.4</ele>
        <time>2021-06-02T09:20:00.530Z</time>
      </trkpt>
      <trkpt lat="44.67557" lon="-0.87023">
        <ele>45.9</ele>
        <time>2021-06-02T09:20:02.986Z</time>
      </trkpt>
      <trkpt lat="44.67503" lon="-0.87069">
        <ele>44.7</ele>
        <time>2021-06-02T09:20:13.280Z</time>
      </trkpt>
      <trkpt lat="44.67486" lon="-0.87094">
        <ele>44.2</ele>
        <time>2021-06-02T09:20:17.228Z</time>
      </trkpt>
      <trkpt lat="44.67481" lon="-0.87097">
        <ele>44.3</ele>
        <time>2021-06-02T09:20:19.051Z</time>
      </trkpt>
      <trkpt lat="44.67475" lon="-0.87098">
        <ele>44.4</ele>
        <time>2021-06-02T09:20:21.036Z</time>
      </trkpt>
      <trkpt lat="44.67468" lon="-0.87091">
        <ele>44.7</ele>
        <time>2021-06-02T09:20:24.557Z</time>
      </trkpt>
      <trkpt lat="44.67459" lon="-0.87071">
        <ele>45.4</ele>
        <time>2021-06-02T09:20:32.136Z</time>
      </trkpt>
      <trkpt lat="44.6746" lon="-0.87066">
        <ele>45.6</ele>
        <time>2021-06-02T09:20:33.987Z</time>
      </trkpt>
      <trkpt lat="44.67461" lon="-0.87059">
        <ele>45.8</ele>
        <time>2021-06-02T09:20:36.201Z</time>
      </trkpt>
      <trkpt lat="44.67465" lon="-0.87045">
        <ele>46.3</ele>
        <time>2021-06-02T09:20:41.317Z</time>
      </trkpt>
      <trkpt lat="44.67469" lon="-0.87042">
        <ele>46.4</ele>
        <time>2021-06-02T09:20:42.900Z</time>
      </trkpt>
      <trkpt lat="44.67475" lon="-0.87033">
        <ele>46.7</ele>
        <time>2021-06-02T09:20:46.461Z</time>
      </trkpt>
      <trkpt lat="44.67478" lon="-0.87012">
        <ele>47.5</ele>
        <time>2021-06-02T09:20:54.010Z</time>
      </trkpt>
      <trkpt lat="44.67469" lon="-0.86982">
        <ele>48.4</ele>
        <time>2021-06-02T09:21:04.034Z</time>
      </trkpt>
      <trkpt lat="44.67465" lon="-0.86953">
        <ele>48.9</ele>
        <time>2021-06-02T09:21:11.522Z</time>
      </trkpt>
      <trkpt lat="44.6744" lon="-0.86925">
        <ele>49.2</ele>
        <time>2021-06-02T09:21:21.269Z</time>
      </trkpt>
      <trkpt lat="44.6741" lon="-0.86951">
        <ele>48.7</ele>
        <time>2021-06-02T09:21:27.364Z</time>
      </trkpt>
      <trkpt lat="44.67404" lon="-0.86972">
        <ele>48.6</ele>
        <time>2021-06-02T09:21:31.460Z</time>
      </trkpt>
      <trkpt lat="44.67392" lon="-0.86978">
        <ele>48.9</ele>
        <time>2021-06-02T09:21:35.987Z</time>
      </trkpt>
      <trkpt lat="44.67372" lon="-0.8694">
        <ele>49.2</ele>
        <time>2021-06-02T09:21:46.193Z</time>
      </trkpt>
      <trkpt lat="44.6736" lon="-0.86902">
        <ele>49.1</ele>
        <time>2021-06-02T09:21:54.029Z</time>
      </trkpt>
      <trkpt lat="44.67366" lon="-0.86863">
        <ele>49.3</ele>
        <time>2021-06-02T09:22:02.485Z</time>
      </trkpt>
      <trkpt lat="44.67366" lon="-0.86815">
        <ele>49.5</ele>
        <time>2021-06-02T09:22:12.540Z</time>
      </trkpt>
      <trkpt lat="44.67372" lon="-0.86775">
        <ele>49.8</ele>
        <time>2021-06-02T09:22:21.490Z</time>
      </trkpt>
      <trkpt lat="44.67362" lon="-0.86742">
        <ele>49.7</ele>
        <time>2021-06-02T09:22:28.198Z</time>
      </trkpt>
      <trkpt lat="44.67358" lon="-0.86726">
        <ele>49.5</ele>
        <time>2021-06-02T09:22:30.222Z</time>
      </trkpt>
      <trkpt lat="44.67357" lon="-0.86726">
        <ele>49.4</ele>
        <time>2021-06-02T09:22:30.336Z</time>
      </trkpt>
      <trkpt lat="44.67353" lon="-0.8673">
        <ele>49.3</ele>
        <time>2021-06-02T09:22:31.124Z</time>
      </trkpt>
      <trkpt lat="44.6735" lon="-0.86738">
        <ele>49.3</ele>
        <time>2021-06-02T09:22:32.916Z</time>
      </trkpt>
      <trkpt lat="44.6736" lon="-0.86786">
        <ele>49.5</ele>
        <time>2021-06-02T09:22:43.370Z</time>
      </trkpt>
      <trkpt lat="44.67347" lon="-0.86821">
        <ele>49.2</ele>
        <time>2021-06-02T09:22:48.450Z</time>
      </trkpt>
      <trkpt lat="44.67346" lon="-0.86871">
        <ele>49.1</ele>
        <time>2021-06-02T09:22:57.956Z</time>
      </trkpt>
      <trkpt lat="44.67335" lon="-0.86915">
        <ele>49</ele>
        <time>2021-06-02T09:23:06.794Z</time>
      </trkpt>
      <trkpt lat="44.67338" lon="-0.86937">
        <ele>49.4</ele>
        <time>2021-06-02T09:23:12.561Z</time>
      </trkpt>
      <trkpt lat="44.67342" lon="-0.86955">
        <ele>49.8</ele>
        <time>2021-06-02T09:23:17.704Z</time>
      </trkpt>
      <trkpt lat="44.6736" lon="-0.8697">
        <ele>49.7</ele>
        <time>2021-06-02T09:23:23.139Z</time>
      </trkpt>
      <trkpt lat="44.67371" lon="-0.86987">
        <ele>49.5</ele>
        <time>2021-06-02T09:23:26.037Z</time>
      </trkpt>
      <trkpt lat="44.67386" lon="-0.87025">
        <ele>48.6</ele>
        <time>2021-06-02T09:23:30.536Z</time>
      </trkpt>
      <trkpt lat="44.67391" lon="-0.87026">
        <ele>48.4</ele>
        <time>2021-06-02T09:23:31.198Z</time>
      </trkpt>
      <trkpt lat="44.67417" lon="-0.87019">
        <ele>47.5</ele>
        <time>2021-06-02T09:23:34.862Z</time>
      </trkpt>
      <trkpt lat="44.67427" lon="-0.87068">
        <ele>46.2</ele>
        <time>2021-06-02T09:23:39.787Z</time>
      </trkpt>
      <trkpt lat="44.67452" lon="-0.87117">
        <ele>44.7</ele>
        <time>2021-06-02T09:23:45.666Z</time>
      </trkpt>
      <trkpt lat="44.67441" lon="-0.87148">
        <ele>44.6</ele>
        <time>2021-06-02T09:23:52.131Z</time>
      </trkpt>
      <trkpt lat="44.67439" lon="-0.87176">
        <ele>44.4</ele>
        <time>2021-06-02T09:23:55.785Z</time>
      </trkpt>
      <trkpt lat="44.67424" lon="-0.87203">
        <ele>44.1</ele>
        <time>2021-06-02T09:24:00.100Z</time>
      </trkpt>
      <trkpt lat="44.67407" lon="-0.87267">
        <ele>43.6</ele>
        <time>2021-06-02T09:24:08.935Z</time>
      </trkpt>
      <trkpt lat="44.67409" lon="-0.87309">
        <ele>43.4</ele>
        <time>2021-06-02T09:24:16.504Z</time>
      </trkpt>
      <trkpt lat="44.67408" lon="-0.87368">
        <ele>44.1</ele>
        <time>2021-06-02T09:24:30.313Z</time>
      </trkpt>
      <trkpt lat="44.67428" lon="-0.87378">
        <ele>44.5</ele>
        <time>2021-06-02T09:24:37.465Z</time>
      </trkpt>
      <trkpt lat="44.67452" lon="-0.87474">
        <ele>45</ele>
        <time>2021-06-02T09:24:59.000Z</time>
      </trkpt>
      <trkpt lat="44.6746" lon="-0.87495">
        <ele>44.6</ele>
        <time>2021-06-02T09:25:01.619Z</time>
      </trkpt>
      <trkpt lat="44.67454" lon="-0.87518">
        <ele>44.1</ele>
        <time>2021-06-02T09:25:04.166Z</time>
      </trkpt>
      <trkpt lat="44.67452" lon="-0.87526">
        <ele>44</ele>
        <time>2021-06-02T09:25:05.178Z</time>
      </trkpt>
      <trkpt lat="44.67426" lon="-0.87531">
        <ele>44.1</ele>
        <time>2021-06-02T09:25:12.758Z</time>
      </trkpt>
      <trkpt lat="44.67405" lon="-0.8756">
        <ele>43.6</ele>
        <time>2021-06-02T09:25:17.675Z</time>
      </trkpt>
      <trkpt lat="44.67387" lon="-0.87566">
        <ele>43.4</ele>
        <time>2021-06-02T09:25:21.016Z</time>
      </trkpt>
      <trkpt lat="44.67361" lon="-0.87599">
        <ele>43.1</ele>
        <time>2021-06-02T09:25:27.534Z</time>
      </trkpt>
      <trkpt lat="44.67343" lon="-0.87606">
        <ele>43</ele>
        <time>2021-06-02T09:25:32.345Z</time>
      </trkpt>
      <trkpt lat="44.6732" lon="-0.87584">
        <ele>43.2</ele>
        <time>2021-06-02T09:25:40.646Z</time>
      </trkpt>
      <trkpt lat="44.67292" lon="-0.87611">
        <ele>43.2</ele>
        <time>2021-06-02T09:25:50.110Z</time>
      </trkpt>
      <trkpt lat="44.67247" lon="-0.87637">
        <ele>42.7</ele>
        <time>2021-06-02T09:25:58.959Z</time>
      </trkpt>
      <trkpt lat="44.67223" lon="-0.87647">
        <ele>42.4</ele>
        <time>2021-06-02T09:26:03.411Z</time>
      </trkpt>
      <trkpt lat="44.67198" lon="-0.87644">
        <ele>42.4</ele>
        <time>2021-06-02T09:26:10.406Z</time>
      </trkpt>
      <trkpt lat="44.6718" lon="-0.87657">
        <ele>42.1</ele>
        <time>2021-06-02T09:26:13.877Z</time>
      </trkpt>
      <trkpt lat="44.67172" lon="-0.87669">
        <ele>42</ele>
        <time>2021-06-02T09:26:16.055Z</time>
      </trkpt>
      <trkpt lat="44.67153" lon="-0.8767">
        <ele>42.5</ele>
        <time>2021-06-02T09:26:23.037Z</time>
      </trkpt>
      <trkpt lat="44.67144" lon="-0.87673">
        <ele>42.8</ele>
        <time>2021-06-02T09:26:26.705Z</time>
      </trkpt>
      <trkpt lat="44.67135" lon="-0.87686">
        <ele>43.1</ele>
        <time>2021-06-02T09:26:31.275Z</time>
      </trkpt>
      <trkpt lat="44.67108" lon="-0.8771">
        <ele>43.7</ele>
        <time>2021-06-02T09:26:42.029Z</time>
      </trkpt>
      <trkpt lat="44.67084" lon="-0.87722">
        <ele>44.3</ele>
        <time>2021-06-02T09:26:51.084Z</time>
      </trkpt>
      <trkpt lat="44.67063" lon="-0.87748">
        <ele>45</ele>
        <time>2021-06-02T09:27:01.202Z</time>
      </trkpt>
      <trkpt lat="44.67046" lon="-0.87796">
        <ele>45.1</ele>
        <time>2021-06-02T09:27:12.094Z</time>
      </trkpt>
      <trkpt lat="44.67039" lon="-0.87829">
        <ele>45.3</ele>
        <time>2021-06-02T09:27:19.473Z</time>
      </trkpt>
      <trkpt lat="44.67047" lon="-0.87854">
        <ele>44</ele>
        <time>2021-06-02T09:27:21.503Z</time>
      </trkpt>
      <trkpt lat="44.67054" lon="-0.87862">
        <ele>43.1</ele>
        <time>2021-06-02T09:27:22.529Z</time>
      </trkpt>
      <trkpt lat="44.67057" lon="-0.8788">
        <ele>42.4</ele>
        <time>2021-06-02T09:27:24.053Z</time>
      </trkpt>
      <trkpt lat="44.67048" lon="-0.87945">
        <ele>41.4</ele>
        <time>2021-06-02T09:27:31.534Z</time>
      </trkpt>
      <trkpt lat="44.67043" lon="-0.88001">
        <ele>39.9</ele>
        <time>2021-06-02T09:27:36.907Z</time>
      </trkpt>
      <trkpt lat="44.6703" lon="-0.88015">
        <ele>40.4</ele>
        <time>2021-06-02T09:27:43.244Z</time>
      </trkpt>
      <trkpt lat="44.67008" lon="-0.88009">
        <ele>42</ele>
        <time>2021-06-02T09:27:55.949Z</time>
      </trkpt>
      <trkpt lat="44.6698" lon="-0.88034">
        <ele>42.9</ele>
        <time>2021-06-02T09:28:08.253Z</time>
      </trkpt>
      <trkpt lat="44.66972" lon="-0.88055">
        <ele>42.7</ele>
        <time>2021-06-02T09:28:11.273Z</time>
      </trkpt>
      <trkpt lat="44.66981" lon="-0.88085">
        <ele>40.8</ele>
        <time>2021-06-02T09:28:13.906Z</time>
      </trkpt>
      <trkpt lat="44.66983" lon="-0.88106">
        <ele>40.5</ele>
        <time>2021-06-02T09:28:16.336Z</time>
      </trkpt>
      <trkpt lat="44.66982" lon="-0.88124">
        <ele>40.5</ele>
        <time>2021-06-02T09:28:19.916Z</time>
      </trkpt>
      <trkpt lat="44.66982" lon="-0.88137">
        <ele>40.4</ele>
        <time>2021-06-02T09:28:21.585Z</time>
      </trkpt>
      <trkpt lat="44.66984" lon="-0.88163">
        <ele>40.2</ele>
        <time>2021-06-02T09:28:24.947Z</time>
      </trkpt>
      <trkpt lat="44.66971" lon="-0.88204">
        <ele>40.9</ele>
        <time>2021-06-02T09:28:36.083Z</time>
      </trkpt>
      <trkpt lat="44.66967" lon="-0.88207">
        <ele>41.2</ele>
        <time>2021-06-02T09:28:38.554Z</time>
      </trkpt>
      <trkpt lat="44.66957" lon="-0.88215">
        <ele>41.8</ele>
        <time>2021-06-02T09:28:44.243Z</time>
      </trkpt>
      <trkpt lat="44.66951" lon="-0.88242">
        <ele>42</ele>
        <time>2021-06-02T09:28:50.412Z</time>
      </trkpt>
      <trkpt lat="44.6694" lon="-0.88255">
        <ele>42.5</ele>
        <time>2021-06-02T09:28:56.292Z</time>
      </trkpt>
      <trkpt lat="44.6694" lon="-0.88294">
        <ele>41.8</ele>
        <time>2021-06-02T09:29:00.503Z</time>
      </trkpt>
      <trkpt lat="44.66935" lon="-0.88306">
        <ele>41.9</ele>
        <time>2021-06-02T09:29:03.541Z</time>
      </trkpt>
      <trkpt lat="44.66937" lon="-0.88337">
        <ele>41.4</ele>
        <time>2021-06-02T09:29:07.004Z</time>
      </trkpt>
      <trkpt lat="44.66934" lon="-0.88345">
        <ele>41.6</ele>
        <time>2021-06-02T09:29:09.511Z</time>
      </trkpt>
      <trkpt lat="44.66928" lon="-0.88355">
        <ele>42</ele>
        <time>2021-06-02T09:29:13.789Z</time>
      </trkpt>
      <trkpt lat="44.66896" lon="-0.88383">
        <ele>43.5</ele>
        <time>2021-06-02T09:29:30.323Z</time>
      </trkpt>
      <trkpt lat="44.66856" lon="-0.88394">
        <ele>45.3</ele>
        <time>2021-06-02T09:29:49.403Z</time>
      </trkpt>
      <trkpt lat="44.66832" lon="-0.88408">
        <ele>46.1</ele>
        <time>2021-06-02T09:29:59.492Z</time>
      </trkpt>
      <trkpt lat="44.6681" lon="-0.8841">
        <ele>45.8</ele>
        <time>2021-06-02T09:30:03.332Z</time>
      </trkpt>
      <trkpt lat="44.66797" lon="-0.88428">
        <ele>45.2</ele>
        <time>2021-06-02T09:30:05.886Z</time>
      </trkpt>
      <trkpt lat="44.66761" lon="-0.88458">
        <ele>43.6</ele>
        <time>2021-06-02T09:30:11.442Z</time>
      </trkpt>
      <trkpt lat="44.66747" lon="-0.8846">
        <ele>43.4</ele>
        <time>2021-06-02T09:30:13.874Z</time>
      </trkpt>
      <trkpt lat="44.66728" lon="-0.88477">
        <ele>42.4</ele>
        <time>2021-06-02T09:30:16.696Z</time>
      </trkpt>
      <trkpt lat="44.66714" lon="-0.88498">
        <ele>41.6</ele>
        <time>2021-06-02T09:30:19.391Z</time>
      </trkpt>
      <trkpt lat="44.66711" lon="-0.885">
        <ele>41.5</ele>
        <time>2021-06-02T09:30:19.870Z</time>
      </trkpt>
      <trkpt lat="44.66699" lon="-0.88498">
        <ele>41.4</ele>
        <time>2021-06-02T09:30:22.127Z</time>
      </trkpt>
      <trkpt lat="44.66675" lon="-0.88496">
        <ele>41.2</ele>
        <time>2021-06-02T09:30:26.617Z</time>
      </trkpt>
      <trkpt lat="44.66662" lon="-0.88486">
        <ele>40.9</ele>
        <time>2021-06-02T09:30:28.998Z</time>
      </trkpt>
      <trkpt lat="44.66655" lon="-0.88489">
        <ele>40.4</ele>
        <time>2021-06-02T09:30:29.830Z</time>
      </trkpt>
      <trkpt lat="44.6664" lon="-0.88505">
        <ele>39.3</ele>
        <time>2021-06-02T09:30:31.921Z</time>
      </trkpt>
      <trkpt lat="44.66619" lon="-0.8854">
        <ele>37.5</ele>
        <time>2021-06-02T09:30:35.634Z</time>
      </trkpt>
      <trkpt lat="44.66611" lon="-0.88558">
        <ele>37</ele>
        <time>2021-06-02T09:30:37.742Z</time>
      </trkpt>
      <trkpt lat="44.66607" lon="-0.88569">
        <ele>36.7</ele>
        <time>2021-06-02T09:30:38.956Z</time>
      </trkpt>
      <trkpt lat="44.666" lon="-0.88583">
        <ele>36.4</ele>
        <time>2021-06-02T09:30:40.816Z</time>
      </trkpt>
      <trkpt lat="44.66595" lon="-0.88584">
        <ele>36.3</ele>
        <time>2021-06-02T09:30:41.632Z</time>
      </trkpt>
      <trkpt lat="44.66572" lon="-0.88594">
        <ele>36</ele>
        <time>2021-06-02T09:30:45.888Z</time>
      </trkpt>
      <trkpt lat="44.66534" lon="-0.88617">
        <ele>35.6</ele>
        <time>2021-06-02T09:30:53.474Z</time>
      </trkpt>
      <trkpt lat="44.6653" lon="-0.88621">
        <ele>35.5</ele>
        <time>2021-06-02T09:30:54.261Z</time>
      </trkpt>
      <trkpt lat="44.66513" lon="-0.88638">
        <ele>35.3</ele>
        <time>2021-06-02T09:30:58.090Z</time>
      </trkpt>
      <trkpt lat="44.6644" lon="-0.88636">
        <ele>35</ele>
        <time>2021-06-02T09:31:17.239Z</time>
      </trkpt>
      <trkpt lat="44.66407" lon="-0.88664">
        <ele>35</ele>
        <time>2021-06-02T09:31:27.983Z</time>
      </trkpt>
      <trkpt lat="44.66392" lon="-0.88681">
        <ele>35.2</ele>
        <time>2021-06-02T09:31:33.918Z</time>
      </trkpt>
      <trkpt lat="44.66364" lon="-0.88653">
        <ele>35.1</ele>
        <time>2021-06-02T09:31:43.088Z</time>
      </trkpt>
      <trkpt lat="44.66359" lon="-0.8862">
        <ele>35.4</ele>
        <time>2021-06-02T09:31:50.642Z</time>
      </trkpt>
      <trkpt lat="44.66326" lon="-0.88592">
        <ele>35.9</ele>
        <time>2021-06-02T09:32:02.836Z</time>
      </trkpt>
      <trkpt lat="44.66304" lon="-0.88568">
        <ele>36.1</ele>
        <time>2021-06-02T09:32:11.145Z</time>
      </trkpt>
      <trkpt lat="44.66291" lon="-0.88532">
        <ele>36.3</ele>
        <time>2021-06-02T09:32:19.695Z</time>
      </trkpt>
      <trkpt lat="44.66266" lon="-0.88492">
        <ele>37.2</ele>
        <time>2021-06-02T09:32:33.190Z</time>
      </trkpt>
      <trkpt lat="44.66269" lon="-0.88464">
        <ele>38.6</ele>
        <time>2021-06-02T09:32:44.446Z</time>
      </trkpt>
      <trkpt lat="44.66266" lon="-0.88462">
        <ele>38.8</ele>
        <time>2021-06-02T09:32:46.181Z</time>
      </trkpt>
      <trkpt lat="44.66233" lon="-0.88443">
        <ele>39.8</ele>
        <time>2021-06-02T09:32:59.558Z</time>
      </trkpt>
      <trkpt lat="44.66198" lon="-0.88438">
        <ele>38.7</ele>
        <time>2021-06-02T09:33:04.565Z</time>
      </trkpt>
      <trkpt lat="44.66176" lon="-0.88442">
        <ele>37.7</ele>
        <time>2021-06-02T09:33:07.327Z</time>
      </trkpt>
      <trkpt lat="44.66142" lon="-0.88452">
        <ele>37.3</ele>
        <time>2021-06-02T09:33:13.543Z</time>
      </trkpt>
      <trkpt lat="44.66126" lon="-0.88451">
        <ele>37.5</ele>
        <time>2021-06-02T09:33:18.585Z</time>
      </trkpt>
      <trkpt lat="44.66101" lon="-0.88447">
        <ele>37.8</ele>
        <time>2021-06-02T09:33:26.459Z</time>
      </trkpt>
      <trkpt lat="44.661" lon="-0.8843">
        <ele>38.4</ele>
        <time>2021-06-02T09:33:32.351Z</time>
      </trkpt>
      <trkpt lat="44.66084" lon="-0.8841">
        <ele>39.4</ele>
        <time>2021-06-02T09:33:42.567Z</time>
      </trkpt>
      <trkpt lat="44.66067" lon="-0.88404">
        <ele>39.8</ele>
        <time>2021-06-02T09:33:48.744Z</time>
      </trkpt>
      <trkpt lat="44.66058" lon="-0.88405">
        <ele>39.8</ele>
        <time>2021-06-02T09:33:51.261Z</time>
      </trkpt>
      <trkpt lat="44.66049" lon="-0.88409">
        <ele>39.7</ele>
        <time>2021-06-02T09:33:52.970Z</time>
      </trkpt>
      <trkpt lat="44.6603" lon="-0.88406">
        <ele>39.9</ele>
        <time>2021-06-02T09:33:58.865Z</time>
      </trkpt>
      <trkpt lat="44.66014" lon="-0.88409">
        <ele>39.9</ele>
        <time>2021-06-02T09:34:03.365Z</time>
      </trkpt>
      <trkpt lat="44.65998" lon="-0.88432">
        <ele>39.9</ele>
        <time>2021-06-02T09:34:09.744Z</time>
      </trkpt>
      <trkpt lat="44.65986" lon="-0.88429">
        <ele>40.1</ele>
        <time>2021-06-02T09:34:13.742Z</time>
      </trkpt>
      <trkpt lat="44.6598" lon="-0.88428">
        <ele>40.3</ele>
        <time>2021-06-02T09:34:16.160Z</time>
      </trkpt>
      <trkpt lat="44.6597" lon="-0.88546">
        <ele>37.9</ele>
        <time>2021-06-02T09:34:28.560Z</time>
      </trkpt>
      <trkpt lat="44.6597" lon="-0.8855">
        <ele>37.8</ele>
        <time>2021-06-02T09:34:28.949Z</time>
      </trkpt>
      <trkpt lat="44.65969" lon="-0.88553">
        <ele>37.7</ele>
        <time>2021-06-02T09:34:29.250Z</time>
      </trkpt>
      <trkpt lat="44.65964" lon="-0.88553">
        <ele>37.7</ele>
        <time>2021-06-02T09:34:30.644Z</time>
      </trkpt>
      <trkpt lat="44.6595" lon="-0.88541">
        <ele>38</ele>
        <time>2021-06-02T09:34:36.135Z</time>
      </trkpt>
      <trkpt lat="44.65937" lon="-0.88539">
        <ele>38.1</ele>
        <time>2021-06-02T09:34:40.055Z</time>
      </trkpt>
      <trkpt lat="44.65923" lon="-0.88552">
        <ele>37.8</ele>
        <time>2021-06-02T09:34:42.827Z</time>
      </trkpt>
      <trkpt lat="44.6591" lon="-0.88556">
        <ele>37.4</ele>
        <time>2021-06-02T09:34:44.746Z</time>
      </trkpt>
      <trkpt lat="44.65905" lon="-0.88562">
        <ele>37.1</ele>
        <time>2021-06-02T09:34:45.560Z</time>
      </trkpt>
      <trkpt lat="44.65884" lon="-0.88598">
        <ele>35.6</ele>
        <time>2021-06-02T09:34:49.676Z</time>
      </trkpt>
      <trkpt lat="44.65863" lon="-0.88609">
        <ele>34.8</ele>
        <time>2021-06-02T09:34:52.725Z</time>
      </trkpt>
      <trkpt lat="44.65855" lon="-0.88607">
        <ele>34.5</ele>
        <time>2021-06-02T09:34:53.818Z</time>
      </trkpt>
      <trkpt lat="44.65845" lon="-0.88608">
        <ele>34.1</ele>
        <time>2021-06-02T09:34:55.128Z</time>
      </trkpt>
      <trkpt lat="44.65836" lon="-0.88612">
        <ele>33.8</ele>
        <time>2021-06-02T09:34:56.464Z</time>
      </trkpt>
      <trkpt lat="44.65813" lon="-0.88598">
        <ele>34.1</ele>
        <time>2021-06-02T09:35:04.311Z</time>
      </trkpt>
      <trkpt lat="44.65798" lon="-0.88604">
        <ele>34.2</ele>
        <time>2021-06-02T09:35:08.930Z</time>
      </trkpt>
      <trkpt lat="44.65788" lon="-0.886">
        <ele>34.3</ele>
        <time>2021-06-02T09:35:12.108Z</time>
      </trkpt>
      <trkpt lat="44.65773" lon="-0.88586">
        <ele>34.7</ele>
        <time>2021-06-02T09:35:18.410Z</time>
      </trkpt>
      <trkpt lat="44.6577" lon="-0.88598">
        <ele>34.6</ele>
        <time>2021-06-02T09:35:20.039Z</time>
      </trkpt>
      <trkpt lat="44.65764" lon="-0.88608">
        <ele>34.5</ele>
        <time>2021-06-02T09:35:21.721Z</time>
      </trkpt>
      <trkpt lat="44.6576" lon="-0.8861">
        <ele>34.6</ele>
        <time>2021-06-02T09:35:23.230Z</time>
      </trkpt>
      <trkpt lat="44.65744" lon="-0.88603">
        <ele>35</ele>
        <time>2021-06-02T09:35:29.208Z</time>
      </trkpt>
      <trkpt lat="44.65734" lon="-0.88611">
        <ele>35.3</ele>
        <time>2021-06-02T09:35:33.422Z</time>
      </trkpt>
      <trkpt lat="44.6573" lon="-0.88612">
        <ele>35.5</ele>
        <time>2021-06-02T09:35:35.392Z</time>
      </trkpt>
      <trkpt lat="44.6571" lon="-0.88629">
        <ele>36.2</ele>
        <time>2021-06-02T09:35:44.370Z</time>
      </trkpt>
      <trkpt lat="44.65706" lon="-0.8863">
        <ele>36.3</ele>
        <time>2021-06-02T09:35:45.833Z</time>
      </trkpt>
      <trkpt lat="44.65703" lon="-0.88628">
        <ele>36.5</ele>
        <time>2021-06-02T09:35:47.567Z</time>
      </trkpt>
      <trkpt lat="44.65697" lon="-0.88613">
        <ele>36.8</ele>
        <time>2021-06-02T09:35:51.968Z</time>
      </trkpt>
      <trkpt lat="44.65689" lon="-0.88603">
        <ele>37.1</ele>
        <time>2021-06-02T09:35:55.982Z</time>
      </trkpt>
      <trkpt lat="44.65685" lon="-0.88592">
        <ele>37.3</ele>
        <time>2021-06-02T09:35:59.077Z</time>
      </trkpt>
      <trkpt lat="44.65683" lon="-0.8858">
        <ele>37.5</ele>
        <time>2021-06-02T09:36:02.167Z</time>
      </trkpt>
      <trkpt lat="44.65681" lon="-0.88573">
        <ele>37.6</ele>
        <time>2021-06-02T09:36:03.970Z</time>
      </trkpt>
      <trkpt lat="44.65678" lon="-0.88568">
        <ele>37.8</ele>
        <time>2021-06-02T09:36:06.110Z</time>
      </trkpt>
      <trkpt lat="44.65674" lon="-0.8857">
        <ele>37.9</ele>
        <time>2021-06-02T09:36:07.619Z</time>
      </trkpt>
      <trkpt lat="44.65669" lon="-0.88602">
        <ele>37.9</ele>
        <time>2021-06-02T09:36:14.116Z</time>
      </trkpt>
      <trkpt lat="44.65673" lon="-0.88651">
        <ele>37.7</ele>
        <time>2021-06-02T09:36:23.110Z</time>
      </trkpt>
      <trkpt lat="44.6567" lon="-0.88663">
        <ele>37.8</ele>
        <time>2021-06-02T09:36:25.916Z</time>
      </trkpt>
      <trkpt lat="44.65659" lon="-0.88697">
        <ele>37.2</ele>
        <time>2021-06-02T09:36:30.072Z</time>
      </trkpt>
      <trkpt lat="44.65646" lon="-0.88723">
        <ele>36.8</ele>
        <time>2021-06-02T09:36:33.816Z</time>
      </trkpt>
      <trkpt lat="44.65643" lon="-0.88736">
        <ele>36.5</ele>
        <time>2021-06-02T09:36:35.206Z</time>
      </trkpt>
      <trkpt lat="44.65636" lon="-0.88753">
        <ele>36.4</ele>
        <time>2021-06-02T09:36:38.716Z</time>
      </trkpt>
      <trkpt lat="44.65632" lon="-0.88753">
        <ele>36.6</ele>
        <time>2021-06-02T09:36:40.666Z</time>
      </trkpt>
      <trkpt lat="44.65625" lon="-0.88768">
        <ele>36.5</ele>
        <time>2021-06-02T09:36:43.064Z</time>
      </trkpt>
      <trkpt lat="44.65603" lon="-0.88799">
        <ele>36.4</ele>
        <time>2021-06-02T09:36:51.340Z</time>
      </trkpt>
      <trkpt lat="44.65552" lon="-0.8883">
        <ele>38.7</ele>
        <time>2021-06-02T09:37:16.289Z</time>
      </trkpt>
      <trkpt lat="44.65524" lon="-0.88847">
        <ele>40.3</ele>
        <time>2021-06-02T09:37:31.399Z</time>
      </trkpt>
      <trkpt lat="44.65496" lon="-0.88904">
        <ele>38.9</ele>
        <time>2021-06-02T09:37:38.626Z</time>
      </trkpt>
      <trkpt lat="44.65466" lon="-0.88965">
        <ele>38</ele>
        <time>2021-06-02T09:37:47.431Z</time>
      </trkpt>
      <trkpt lat="44.65462" lon="-0.88986">
        <ele>37.6</ele>
        <time>2021-06-02T09:37:49.762Z</time>
      </trkpt>
      <trkpt lat="44.65464" lon="-0.89013">
        <ele>36.7</ele>
        <time>2021-06-02T09:37:52.134Z</time>
      </trkpt>
      <trkpt lat="44.6545" lon="-0.89042">
        <ele>37.1</ele>
        <time>2021-06-02T09:38:00.281Z</time>
      </trkpt>
      <trkpt lat="44.65446" lon="-0.8907">
        <ele>36.6</ele>
        <time>2021-06-02T09:38:03.387Z</time>
      </trkpt>
      <trkpt lat="44.65416" lon="-0.89088">
        <ele>37.8</ele>
        <time>2021-06-02T09:38:17.101Z</time>
      </trkpt>
      <trkpt lat="44.65396" lon="-0.89117">
        <ele>36.8</ele>
        <time>2021-06-02T09:38:21.046Z</time>
      </trkpt>
      <trkpt lat="44.65367" lon="-0.89153">
        <ele>35.3</ele>
        <time>2021-06-02T09:38:26.156Z</time>
      </trkpt>
      <trkpt lat="44.65348" lon="-0.89187">
        <ele>33.5</ele>
        <time>2021-06-02T09:38:29.570Z</time>
      </trkpt>
      <trkpt lat="44.65325" lon="-0.89245">
        <ele>29.3</ele>
        <time>2021-06-02T09:38:34.940Z</time>
      </trkpt>
      <trkpt lat="44.65316" lon="-0.89253">
        <ele>29</ele>
        <time>2021-06-02T09:38:36.506Z</time>
      </trkpt>
      <trkpt lat="44.65307" lon="-0.89265">
        <ele>28.9</ele>
        <time>2021-06-02T09:38:53.217Z</time>
      </trkpt>
      <trkpt lat="44.65292" lon="-0.89275">
        <ele>28.8</ele>
        <time>2021-06-02T09:39:00.432Z</time>
      </trkpt>
      <trkpt lat="44.65282" lon="-0.89265">
        <ele>28.9</ele>
        <time>2021-06-02T09:39:04.129Z</time>
      </trkpt>
      <trkpt lat="44.65273" lon="-0.89273">
        <ele>28.9</ele>
        <time>2021-06-02T09:39:07.097Z</time>
      </trkpt>
      <trkpt lat="44.65283" lon="-0.893">
        <ele>28.8</ele>
        <time>2021-06-02T09:39:12.735Z</time>
      </trkpt>
      <trkpt lat="44.6528" lon="-0.89344">
        <ele>28.5</ele>
        <time>2021-06-02T09:39:18.511Z</time>
      </trkpt>
      <trkpt lat="44.65287" lon="-0.89374">
        <ele>28.1</ele>
        <time>2021-06-02T09:39:22.225Z</time>
      </trkpt>
      <trkpt lat="44.65279" lon="-0.89388">
        <ele>28.2</ele>
        <time>2021-06-02T09:39:26.061Z</time>
      </trkpt>
      <trkpt lat="44.65277" lon="-0.89415">
        <ele>28</ele>
        <time>2021-06-02T09:39:29.570Z</time>
      </trkpt>
      <trkpt lat="44.65261" lon="-0.89446">
        <ele>29</ele>
        <time>2021-06-02T09:39:41.012Z</time>
      </trkpt>
      <trkpt lat="44.65242" lon="-0.89471">
        <ele>29.8</ele>
        <time>2021-06-02T09:39:51.110Z</time>
      </trkpt>
      <trkpt lat="44.65229" lon="-0.89524">
        <ele>30.6</ele>
        <time>2021-06-02T09:40:04.730Z</time>
      </trkpt>
      <trkpt lat="44.65133" lon="-0.89544">
        <ele>30.8</ele>
        <time>2021-06-02T09:40:32.304Z</time>
      </trkpt>
      <trkpt lat="44.65123" lon="-0.8955">
        <ele>30.4</ele>
        <time>2021-06-02T09:40:33.768Z</time>
      </trkpt>
      <trkpt lat="44.65125" lon="-0.8956">
        <ele>30</ele>
        <time>2021-06-02T09:40:34.618Z</time>
      </trkpt>
      <trkpt lat="44.65134" lon="-0.89624">
        <ele>29</ele>
        <time>2021-06-02T09:40:41.964Z</time>
      </trkpt>
      <trkpt lat="44.65132" lon="-0.89641">
        <ele>28.8</ele>
        <time>2021-06-02T09:40:44.028Z</time>
      </trkpt>
      <trkpt lat="44.65134" lon="-0.89642">
        <ele>28.9</ele>
        <time>2021-06-02T09:40:45.044Z</time>
      </trkpt>
      <trkpt lat="44.65132" lon="-0.89641">
        <ele>28.8</ele>
      </trkpt>
      <trkpt lat="44.65131" lon="-0.89648">
        <ele>28.6</ele>
      </trkpt>
      <trkpt lat="44.65112" lon="-0.89666">
        <ele>27.1</ele>
      </trkpt>
      <trkpt lat="44.65102" lon="-0.89693">
        <ele>26</ele>
      </trkpt>
      <trkpt lat="44.65093" lon="-0.89755">
        <ele>24.7</ele>
      </trkpt>
      <trkpt lat="44.6509" lon="-0.89769">
        <ele>24.5</ele>
      </trkpt>
      <trkpt lat="44.65084" lon="-0.89813">
        <ele>24</ele>
      </trkpt>
      <trkpt lat="44.65074" lon="-0.89858">
        <ele>24.7</ele>
      </trkpt>
    </trkseg>
  </trk>
</gpx>